
<gpx xmlns="http://www.topografix.com/GPX/1/1" xmlns:gpxx="http://www.garmin.com/xmlschemas/GpxExtensions/v3" xmlns:xsi="http://www.w3.org/2001/XMLSchema-instance" version="1.1" creator="Adze - https://getadze.com/" xsi:schemaLocation="http://www.topografix.com/GPX/1/1 http://www.topografix.com/GPX/1/1/gpx.xsd http://www.garmin.com/xmlschemas/GpxExtensions/v3 http://www.garmin.com/xmlschemas/GpxExtensionsv3.xsd">
    <metadata>
        <name>Untitled Document</name>
        <link href="http://www.garmin.com"></link>
        <time>2018-03-08T07:28:17.371Z</time>
    </metadata>
    <wpt lon="101.423944" lat="13.023447">
        <ele>88.000000</ele>
        <name>Wangjuntr resort</name>
        <cmt>30-JUL-10 14:39:39</cmt>
        <desc>30-JUL-10 14:39:39</desc>
        <sym>Lodging</sym>
        <extensions>
            <gpxx:WaypointExtension xmlns:gpxx="http://www.garmin.com/xmlschemas/GpxExtensions/v3">
                <gpxx:DisplayMode>SymbolOnly</gpxx:DisplayMode>
            </gpxx:WaypointExtension>
        </extensions>
    </wpt>
    <wpt lon="101.376518" lat="13.060025">
        <time>2010-08-02T02:43:20Z</time>
        <name>July 2010 - Sunday water</name>
        <cmt>KO KANU THAPHON RD.</cmt>
        <desc>KO KANU THAPHON RD.</desc>
        <sym>Drinking Water</sym>
        <extensions>
            <gpxx:WaypointExtension xmlns:gpxx="http://www.garmin.com/xmlschemas/GpxExtensions/v3">
                <gpxx:DisplayMode>SymbolOnly</gpxx:DisplayMode>
            </gpxx:WaypointExtension>
        </extensions>
    </wpt>
    <trk>
        <name>July 2010 - Sunday</name>
        <extensions>
            <gpxx:TrackExtension xmlns:gpxx="http://www.garmin.com/xmlschemas/GpxExtensions/v3">
                <gpxx:DisplayColor>Green</gpxx:DisplayColor>
            </gpxx:TrackExtension>
        </extensions>
        <trkseg>
            <trkpt lon="101.424319" lat="13.023382">
                <ele>93.866000</ele>
                <time>2010-08-01T02:59:40Z</time>
            </trkpt>
            <trkpt lon="101.424732" lat="13.023537">
                <ele>89.059000</ele>
                <time>2010-08-01T03:00:12Z</time>
            </trkpt>
            <trkpt lon="101.424959" lat="13.024164">
                <ele>84.253000</ele>
                <time>2010-08-01T03:00:22Z</time>
            </trkpt>
            <trkpt lon="101.424692" lat="13.024981">
                <ele>85.214000</ele>
                <time>2010-08-01T03:00:32Z</time>
            </trkpt>
            <trkpt lon="101.424617" lat="13.025416">
                <ele>82.811000</ele>
                <time>2010-08-01T03:00:38Z</time>
            </trkpt>
            <trkpt lon="101.424763" lat="13.025955">
                <ele>80.888000</ele>
                <time>2010-08-01T03:00:45Z</time>
            </trkpt>
            <trkpt lon="101.425143" lat="13.026227">
                <ele>79.927000</ele>
                <time>2010-08-01T03:00:50Z</time>
            </trkpt>
            <trkpt lon="101.426106" lat="13.026473">
                <ele>77.523000</ele>
                <time>2010-08-01T03:01:00Z</time>
            </trkpt>
            <trkpt lon="101.427069" lat="13.026599">
                <ele>74.159000</ele>
                <time>2010-08-01T03:01:10Z</time>
            </trkpt>
            <trkpt lon="101.428805" lat="13.027744">
                <ele>67.430000</ele>
                <time>2010-08-01T03:02:17Z</time>
            </trkpt>
            <trkpt lon="101.426954" lat="13.030471">
                <ele>73.678000</ele>
                <time>2010-08-01T03:03:33Z</time>
            </trkpt>
            <trkpt lon="101.426192" lat="13.032431">
                <ele>77.043000</ele>
                <time>2010-08-01T03:04:10Z</time>
            </trkpt>
            <trkpt lon="101.425433" lat="13.034600">
                <ele>74.159000</ele>
                <time>2010-08-01T03:04:42Z</time>
            </trkpt>
            <trkpt lon="101.425229" lat="13.036369">
                <ele>70.794000</ele>
                <time>2010-08-01T03:05:06Z</time>
            </trkpt>
            <trkpt lon="101.425616" lat="13.039870">
                <ele>69.833000</ele>
                <time>2010-08-01T03:05:57Z</time>
            </trkpt>
            <trkpt lon="101.423783" lat="13.038642">
                <ele>68.872000</ele>
                <time>2010-08-01T03:06:42Z</time>
            </trkpt>
            <trkpt lon="101.421285" lat="13.036708">
                <ele>68.391000</ele>
                <time>2010-08-01T03:07:36Z</time>
            </trkpt>
            <trkpt lon="101.419796" lat="13.035796">
                <ele>68.872000</ele>
                <time>2010-08-01T03:08:01Z</time>
            </trkpt>
            <trkpt lon="101.419201" lat="13.035465">
                <ele>68.391000</ele>
                <time>2010-08-01T03:08:10Z</time>
            </trkpt>
            <trkpt lon="101.416043" lat="13.034500">
                <ele>70.313000</ele>
                <time>2010-08-01T03:09:11Z</time>
            </trkpt>
            <trkpt lon="101.415529" lat="13.034433">
                <ele>76.081000</ele>
                <time>2010-08-01T03:09:29Z</time>
            </trkpt>
            <trkpt lon="101.415029" lat="13.034424">
                <ele>78.485000</ele>
                <time>2010-08-01T03:09:52Z</time>
            </trkpt>
            <trkpt lon="101.414167" lat="13.034504">
                <ele>82.330000</ele>
                <time>2010-08-01T03:10:31Z</time>
            </trkpt>
            <trkpt lon="101.411288" lat="13.035776">
                <ele>81.369000</ele>
                <time>2010-08-01T03:11:30Z</time>
            </trkpt>
            <trkpt lon="101.409612" lat="13.036761">
                <ele>78.965000</ele>
                <time>2010-08-01T03:12:15Z</time>
            </trkpt>
            <trkpt lon="101.409839" lat="13.037934">
                <ele>79.446000</ele>
                <time>2010-08-01T03:12:45Z</time>
            </trkpt>
            <trkpt lon="101.407211" lat="13.038056">
                <ele>78.965000</ele>
                <time>2010-08-01T03:13:38Z</time>
            </trkpt>
            <trkpt lon="101.405997" lat="13.037837">
                <ele>75.120000</ele>
                <time>2010-08-01T03:14:07Z</time>
            </trkpt>
            <trkpt lon="101.405728" lat="13.037517">
                <ele>77.043000</ele>
                <time>2010-08-01T03:14:23Z</time>
            </trkpt>
            <trkpt lon="101.405380" lat="13.036422">
                <ele>74.159000</ele>
                <time>2010-08-01T03:14:54Z</time>
            </trkpt>
            <trkpt lon="101.405141" lat="13.034503">
                <ele>74.640000</ele>
                <time>2010-08-01T03:15:32Z</time>
            </trkpt>
            <trkpt lon="101.405170" lat="13.034194">
                <ele>76.081000</ele>
                <time>2010-08-01T03:15:41Z</time>
            </trkpt>
            <trkpt lon="101.405639" lat="13.034049">
                <ele>77.523000</ele>
                <time>2010-08-01T03:15:55Z</time>
            </trkpt>
            <trkpt lon="101.405900" lat="13.033753">
                <ele>77.523000</ele>
                <time>2010-08-01T03:16:09Z</time>
            </trkpt>
            <trkpt lon="101.406082" lat="13.032897">
                <ele>89.540000</ele>
                <time>2010-08-01T03:16:46Z</time>
            </trkpt>
            <trkpt lon="101.406423" lat="13.032069">
                <ele>94.827000</ele>
                <time>2010-08-01T03:18:52Z</time>
            </trkpt>
            <trkpt lon="101.406384" lat="13.032147">
                <ele>95.308000</ele>
                <time>2010-08-01T03:19:20Z</time>
            </trkpt>
            <trkpt lon="101.406382" lat="13.032179">
                <ele>93.385000</ele>
                <time>2010-08-01T03:19:30Z</time>
            </trkpt>
            <trkpt lon="101.406194" lat="13.032417">
                <ele>92.905000</ele>
                <time>2010-08-01T03:20:17Z</time>
            </trkpt>
            <trkpt lon="101.406035" lat="13.032940">
                <ele>91.463000</ele>
                <time>2010-08-01T03:22:43Z</time>
            </trkpt>
            <trkpt lon="101.403779" lat="13.032943">
                <ele>90.021000</ele>
                <time>2010-08-01T03:26:49Z</time>
            </trkpt>
            <trkpt lon="101.403161" lat="13.034084">
                <ele>90.501000</ele>
                <time>2010-08-01T03:27:31Z</time>
            </trkpt>
            <trkpt lon="101.402967" lat="13.034959">
                <ele>87.137000</ele>
                <time>2010-08-01T03:27:59Z</time>
            </trkpt>
            <trkpt lon="101.401655" lat="13.035772">
                <ele>90.021000</ele>
                <time>2010-08-01T03:29:04Z</time>
            </trkpt>
            <trkpt lon="101.400507" lat="13.036113">
                <ele>89.059000</ele>
                <time>2010-08-01T03:29:40Z</time>
            </trkpt>
            <trkpt lon="101.400092" lat="13.035876">
                <ele>91.943000</ele>
                <time>2010-08-01T03:29:59Z</time>
            </trkpt>
            <trkpt lon="101.399661" lat="13.035832">
                <ele>88.098000</ele>
                <time>2010-08-01T03:30:31Z</time>
            </trkpt>
            <trkpt lon="101.398991" lat="13.036027">
                <ele>89.059000</ele>
                <time>2010-08-01T03:31:03Z</time>
            </trkpt>
            <trkpt lon="101.398767" lat="13.035692">
                <ele>92.905000</ele>
                <time>2010-08-01T03:31:21Z</time>
            </trkpt>
            <trkpt lon="101.397409" lat="13.035947">
                <ele>88.579000</ele>
                <time>2010-08-01T03:32:03Z</time>
            </trkpt>
            <trkpt lon="101.397920" lat="13.037317">
                <ele>85.214000</ele>
                <time>2010-08-01T03:32:37Z</time>
            </trkpt>
            <trkpt lon="101.397908" lat="13.037451">
                <ele>83.291000</ele>
                <time>2010-08-01T03:32:41Z</time>
            </trkpt>
            <trkpt lon="101.397382" lat="13.037841">
                <ele>82.330000</ele>
                <time>2010-08-01T03:32:58Z</time>
            </trkpt>
            <trkpt lon="101.396472" lat="13.038268">
                <ele>81.369000</ele>
                <time>2010-08-01T03:33:20Z</time>
            </trkpt>
            <trkpt lon="101.396144" lat="13.037897">
                <ele>82.811000</ele>
                <time>2010-08-01T03:33:34Z</time>
            </trkpt>
            <trkpt lon="101.395709" lat="13.036740">
                <ele>86.656000</ele>
                <time>2010-08-01T03:34:09Z</time>
            </trkpt>
            <trkpt lon="101.394290" lat="13.037155">
                <ele>86.656000</ele>
                <time>2010-08-01T03:34:53Z</time>
            </trkpt>
            <trkpt lon="101.393984" lat="13.037765">
                <ele>84.733000</ele>
                <time>2010-08-01T03:35:11Z</time>
            </trkpt>
            <trkpt lon="101.393605" lat="13.037986">
                <ele>89.540000</ele>
                <time>2010-08-01T03:35:29Z</time>
            </trkpt>
            <trkpt lon="101.392750" lat="13.037597">
                <ele>93.385000</ele>
                <time>2010-08-01T03:36:04Z</time>
            </trkpt>
            <trkpt lon="101.392345" lat="13.037176">
                <ele>98.672000</ele>
                <time>2010-08-01T03:36:26Z</time>
            </trkpt>
            <trkpt lon="101.391927" lat="13.036934">
                <ele>99.634000</ele>
                <time>2010-08-01T03:36:45Z</time>
            </trkpt>
            <trkpt lon="101.391469" lat="13.037025">
                <ele>100.595000</ele>
                <time>2010-08-01T03:37:04Z</time>
            </trkpt>
            <trkpt lon="101.391284" lat="13.037094">
                <ele>99.634000</ele>
                <time>2010-08-01T03:37:11Z</time>
            </trkpt>
            <trkpt lon="101.390986" lat="13.037392">
                <ele>98.192000</ele>
                <time>2010-08-01T03:37:24Z</time>
            </trkpt>
            <trkpt lon="101.389673" lat="13.037858">
                <ele>103.479000</ele>
                <time>2010-08-01T03:38:17Z</time>
            </trkpt>
            <trkpt lon="101.389494" lat="13.037964">
                <ele>103.479000</ele>
                <time>2010-08-01T03:38:26Z</time>
            </trkpt>
            <trkpt lon="101.388459" lat="13.040128">
                <ele>119.341000</ele>
                <time>2010-08-01T03:40:32Z</time>
            </trkpt>
            <trkpt lon="101.388010" lat="13.041193">
                <ele>113.092000</ele>
                <time>2010-08-01T03:41:42Z</time>
            </trkpt>
            <trkpt lon="101.387178" lat="13.042620">
                <ele>102.037000</ele>
                <time>2010-08-01T03:43:10Z</time>
            </trkpt>
            <trkpt lon="101.386976" lat="13.043263">
                <ele>110.208000</ele>
                <time>2010-08-01T03:43:35Z</time>
            </trkpt>
            <trkpt lon="101.386920" lat="13.043673">
                <ele>110.208000</ele>
                <time>2010-08-01T03:43:45Z</time>
            </trkpt>
            <trkpt lon="101.386784" lat="13.044506">
                <ele>105.882000</ele>
                <time>2010-08-01T03:44:03Z</time>
            </trkpt>
            <trkpt lon="101.386115" lat="13.044805">
                <ele>99.634000</ele>
                <time>2010-08-01T03:44:28Z</time>
            </trkpt>
            <trkpt lon="101.385747" lat="13.044829">
                <ele>100.115000</ele>
                <time>2010-08-01T03:44:45Z</time>
            </trkpt>
            <trkpt lon="101.385097" lat="13.045179">
                <ele>98.672000</ele>
                <time>2010-08-01T03:45:11Z</time>
            </trkpt>
            <trkpt lon="101.384833" lat="13.045607">
                <ele>97.711000</ele>
                <time>2010-08-01T03:45:26Z</time>
            </trkpt>
            <trkpt lon="101.384682" lat="13.046311">
                <ele>95.788000</ele>
                <time>2010-08-01T03:45:41Z</time>
            </trkpt>
            <trkpt lon="101.384794" lat="13.046806">
                <ele>94.827000</ele>
                <time>2010-08-01T03:45:51Z</time>
            </trkpt>
            <trkpt lon="101.384628" lat="13.047214">
                <ele>92.424000</ele>
                <time>2010-08-01T03:46:01Z</time>
            </trkpt>
            <trkpt lon="101.383687" lat="13.047567">
                <ele>95.308000</ele>
                <time>2010-08-01T03:46:35Z</time>
            </trkpt>
            <trkpt lon="101.382892" lat="13.047407">
                <ele>97.711000</ele>
                <time>2010-08-01T03:47:01Z</time>
            </trkpt>
            <trkpt lon="101.382364" lat="13.047154">
                <ele>98.672000</ele>
                <time>2010-08-01T03:47:19Z</time>
            </trkpt>
            <trkpt lon="101.382241" lat="13.047263">
                <ele>99.634000</ele>
                <time>2010-08-01T03:47:26Z</time>
            </trkpt>
            <trkpt lon="101.382713" lat="13.049878">
                <ele>98.672000</ele>
                <time>2010-08-01T03:48:10Z</time>
            </trkpt>
            <trkpt lon="101.381983" lat="13.050750">
                <ele>97.230000</ele>
                <time>2010-08-01T03:48:40Z</time>
            </trkpt>
            <trkpt lon="101.380963" lat="13.050441">
                <ele>96.750000</ele>
                <time>2010-08-01T03:51:03Z</time>
            </trkpt>
            <trkpt lon="101.381464" lat="13.050635">
                <ele>94.827000</ele>
                <time>2010-08-01T03:52:04Z</time>
            </trkpt>
            <trkpt lon="101.381534" lat="13.050858">
                <ele>92.905000</ele>
                <time>2010-08-01T03:52:12Z</time>
            </trkpt>
            <trkpt lon="101.380436" lat="13.051977">
                <ele>93.385000</ele>
                <time>2010-08-01T03:53:08Z</time>
            </trkpt>
            <trkpt lon="101.379635" lat="13.052458">
                <ele>94.827000</ele>
                <time>2010-08-01T03:53:34Z</time>
            </trkpt>
            <trkpt lon="101.379691" lat="13.052954">
                <ele>95.788000</ele>
                <time>2010-08-01T03:53:47Z</time>
            </trkpt>
            <trkpt lon="101.379093" lat="13.053239">
                <ele>100.115000</ele>
                <time>2010-08-01T03:54:09Z</time>
            </trkpt>
            <trkpt lon="101.378295" lat="13.053753">
                <ele>98.192000</ele>
                <time>2010-08-01T03:54:43Z</time>
            </trkpt>
            <trkpt lon="101.378198" lat="13.056004">
                <ele>98.192000</ele>
                <time>2010-08-01T03:55:55Z</time>
            </trkpt>
            <trkpt lon="101.378165" lat="13.054764">
                <ele>98.192000</ele>
                <time>2010-08-01T03:57:23Z</time>
            </trkpt>
            <trkpt lon="101.378181" lat="13.054754">
                <ele>91.943000</ele>
                <time>2010-08-01T03:59:53Z</time>
            </trkpt>
            <trkpt lon="101.378154" lat="13.055086">
                <ele>95.308000</ele>
                <time>2010-08-01T04:00:05Z</time>
            </trkpt>
            <trkpt lon="101.378172" lat="13.055310">
                <ele>93.866000</ele>
                <time>2010-08-01T04:00:10Z</time>
            </trkpt>
            <trkpt lon="101.378114" lat="13.056018">
                <ele>94.347000</ele>
                <time>2010-08-01T04:00:24Z</time>
            </trkpt>
            <trkpt lon="101.378032" lat="13.056157">
                <ele>94.827000</ele>
                <time>2010-08-01T04:00:28Z</time>
            </trkpt>
            <trkpt lon="101.377154" lat="13.056311">
                <ele>94.827000</ele>
                <time>2010-08-01T04:00:45Z</time>
            </trkpt>
            <trkpt lon="101.377025" lat="13.056463">
                <ele>95.788000</ele>
                <time>2010-08-01T04:00:50Z</time>
            </trkpt>
            <trkpt lon="101.377277" lat="13.057137">
                <ele>92.424000</ele>
                <time>2010-08-01T04:01:01Z</time>
            </trkpt>
            <trkpt lon="101.377205" lat="13.058450">
                <ele>92.424000</ele>
                <time>2010-08-01T04:01:19Z</time>
            </trkpt>
            <trkpt lon="101.377132" lat="13.058981">
                <ele>91.463000</ele>
                <time>2010-08-01T04:01:27Z</time>
            </trkpt>
            <trkpt lon="101.376617" lat="13.059729">
                <ele>93.385000</ele>
                <time>2010-08-01T04:01:43Z</time>
            </trkpt>
            <trkpt lon="101.376522" lat="13.060088">
                <ele>95.788000</ele>
                <time>2010-08-01T04:01:50Z</time>
            </trkpt>
            <trkpt lon="101.376586" lat="13.060674">
                <ele>95.788000</ele>
                <time>2010-08-01T04:02:00Z</time>
            </trkpt>
            <trkpt lon="101.376750" lat="13.060910">
                <ele>94.827000</ele>
                <time>2010-08-01T04:02:09Z</time>
            </trkpt>
            <trkpt lon="101.377796" lat="13.061471">
                <ele>95.308000</ele>
                <time>2010-08-01T04:20:24Z</time>
            </trkpt>
            <trkpt lon="101.378829" lat="13.061870">
                <ele>97.711000</ele>
                <time>2010-08-01T04:20:46Z</time>
            </trkpt>
            <trkpt lon="101.379425" lat="13.062108">
                <ele>97.711000</ele>
                <time>2010-08-01T04:20:56Z</time>
            </trkpt>
            <trkpt lon="101.382783" lat="13.063874">
                <ele>92.424000</ele>
                <time>2010-08-01T04:21:51Z</time>
            </trkpt>
            <trkpt lon="101.383900" lat="13.064039">
                <ele>87.617000</ele>
                <time>2010-08-01T04:22:07Z</time>
            </trkpt>
            <trkpt lon="101.384309" lat="13.064224">
                <ele>86.175000</ele>
                <time>2010-08-01T04:22:13Z</time>
            </trkpt>
            <trkpt lon="101.384631" lat="13.063315">
                <ele>83.291000</ele>
                <time>2010-08-01T04:22:42Z</time>
            </trkpt>
            <trkpt lon="101.385608" lat="13.062940">
                <ele>85.214000</ele>
                <time>2010-08-01T04:23:02Z</time>
            </trkpt>
            <trkpt lon="101.386621" lat="13.063147">
                <ele>87.137000</ele>
                <time>2010-08-01T04:23:21Z</time>
            </trkpt>
            <trkpt lon="101.387230" lat="13.063298">
                <ele>84.253000</ele>
                <time>2010-08-01T04:23:31Z</time>
            </trkpt>
            <trkpt lon="101.389527" lat="13.063636">
                <ele>83.772000</ele>
                <time>2010-08-01T04:24:04Z</time>
            </trkpt>
            <trkpt lon="101.390380" lat="13.064035">
                <ele>79.927000</ele>
                <time>2010-08-01T04:24:18Z</time>
            </trkpt>
            <trkpt lon="101.391183" lat="13.062773">
                <ele>80.888000</ele>
                <time>2010-08-01T04:24:49Z</time>
            </trkpt>
            <trkpt lon="101.391205" lat="13.060058">
                <ele>89.540000</ele>
                <time>2010-08-01T04:25:55Z</time>
            </trkpt>
            <trkpt lon="101.390904" lat="13.057726">
                <ele>87.137000</ele>
                <time>2010-08-01T04:26:48Z</time>
            </trkpt>
            <trkpt lon="101.391912" lat="13.057781">
                <ele>86.656000</ele>
                <time>2010-08-01T04:27:10Z</time>
            </trkpt>
            <trkpt lon="101.392260" lat="13.056925">
                <ele>85.695000</ele>
                <time>2010-08-01T04:27:33Z</time>
            </trkpt>
            <trkpt lon="101.392754" lat="13.056105">
                <ele>78.965000</ele>
                <time>2010-08-01T04:28:34Z</time>
            </trkpt>
            <trkpt lon="101.392914" lat="13.056213">
                <ele>81.369000</ele>
                <time>2010-08-01T04:29:05Z</time>
            </trkpt>
            <trkpt lon="101.393107" lat="13.056251">
                <ele>82.330000</ele>
                <time>2010-08-01T04:29:19Z</time>
            </trkpt>
            <trkpt lon="101.396094" lat="13.056932">
                <ele>79.927000</ele>
                <time>2010-08-01T04:31:30Z</time>
            </trkpt>
            <trkpt lon="101.394719" lat="13.056581">
                <ele>82.811000</ele>
                <time>2010-08-01T04:32:21Z</time>
            </trkpt>
            <trkpt lon="101.392875" lat="13.056176">
                <ele>80.407000</ele>
                <time>2010-08-01T04:33:32Z</time>
            </trkpt>
            <trkpt lon="101.394235" lat="13.051512">
                <ele>80.888000</ele>
                <time>2010-08-01T04:36:18Z</time>
            </trkpt>
            <trkpt lon="101.394052" lat="13.051206">
                <ele>73.678000</ele>
                <time>2010-08-01T04:37:28Z</time>
            </trkpt>
            <trkpt lon="101.394371" lat="13.050431">
                <ele>77.523000</ele>
                <time>2010-08-01T04:38:32Z</time>
            </trkpt>
            <trkpt lon="101.394557" lat="13.050361">
                <ele>77.523000</ele>
                <time>2010-08-01T04:38:49Z</time>
            </trkpt>
            <trkpt lon="101.394658" lat="13.049869">
                <ele>80.407000</ele>
                <time>2010-08-01T04:39:09Z</time>
            </trkpt>
            <trkpt lon="101.394732" lat="13.049511">
                <ele>80.407000</ele>
                <time>2010-08-01T04:39:19Z</time>
            </trkpt>
            <trkpt lon="101.394864" lat="13.049010">
                <ele>76.562000</ele>
                <time>2010-08-01T04:39:47Z</time>
            </trkpt>
            <trkpt lon="101.394793" lat="13.047382">
                <ele>82.330000</ele>
                <time>2010-08-01T04:41:09Z</time>
            </trkpt>
            <trkpt lon="101.396862" lat="13.047588">
                <ele>87.617000</ele>
                <time>2010-08-01T04:41:54Z</time>
            </trkpt>
            <trkpt lon="101.398042" lat="13.047704">
                <ele>86.656000</ele>
                <time>2010-08-01T04:42:18Z</time>
            </trkpt>
            <trkpt lon="101.398232" lat="13.047082">
                <ele>87.617000</ele>
                <time>2010-08-01T04:42:43Z</time>
            </trkpt>
            <trkpt lon="101.398237" lat="13.046909">
                <ele>86.656000</ele>
                <time>2010-08-01T04:42:49Z</time>
            </trkpt>
            <trkpt lon="101.399437" lat="13.046651">
                <ele>84.253000</ele>
                <time>2010-08-01T04:43:23Z</time>
            </trkpt>
            <trkpt lon="101.399777" lat="13.046396">
                <ele>85.214000</ele>
                <time>2010-08-01T04:43:34Z</time>
            </trkpt>
            <trkpt lon="101.400199" lat="13.046054">
                <ele>82.811000</ele>
                <time>2010-08-01T04:43:52Z</time>
            </trkpt>
            <trkpt lon="101.402214" lat="13.045368">
                <ele>80.888000</ele>
                <time>2010-08-01T04:44:58Z</time>
            </trkpt>
            <trkpt lon="101.402489" lat="13.045450">
                <ele>80.888000</ele>
                <time>2010-08-01T04:45:07Z</time>
            </trkpt>
            <trkpt lon="101.403411" lat="13.046203">
                <ele>77.523000</ele>
                <time>2010-08-01T04:45:31Z</time>
            </trkpt>
            <trkpt lon="101.404929" lat="13.045568">
                <ele>77.523000</ele>
                <time>2010-08-01T04:46:04Z</time>
            </trkpt>
            <trkpt lon="101.405144" lat="13.045375">
                <ele>77.523000</ele>
                <time>2010-08-01T04:46:10Z</time>
            </trkpt>
            <trkpt lon="101.405373" lat="13.044535">
                <ele>77.043000</ele>
                <time>2010-08-01T04:46:29Z</time>
            </trkpt>
            <trkpt lon="101.405799" lat="13.044303">
                <ele>75.120000</ele>
                <time>2010-08-01T04:46:38Z</time>
            </trkpt>
            <trkpt lon="101.407716" lat="13.044665">
                <ele>75.601000</ele>
                <time>2010-08-01T04:47:14Z</time>
            </trkpt>
            <trkpt lon="101.409043" lat="13.045074">
                <ele>71.755000</ele>
                <time>2010-08-01T04:47:37Z</time>
            </trkpt>
            <trkpt lon="101.410318" lat="13.044417">
                <ele>73.198000</ele>
                <time>2010-08-01T04:48:04Z</time>
            </trkpt>
            <trkpt lon="101.413085" lat="13.043437">
                <ele>67.910000</ele>
                <time>2010-08-01T04:48:54Z</time>
            </trkpt>
            <trkpt lon="101.418109" lat="13.042063">
                <ele>63.584000</ele>
                <time>2010-08-01T04:50:36Z</time>
            </trkpt>
            <trkpt lon="101.419000" lat="13.041759">
                <ele>62.142000</ele>
                <time>2010-08-01T04:51:01Z</time>
            </trkpt>
            <trkpt lon="101.418933" lat="13.042060">
                <ele>65.026000</ele>
                <time>2010-08-01T04:51:16Z</time>
            </trkpt>
            <trkpt lon="101.418799" lat="13.042759">
                <ele>62.623000</ele>
                <time>2010-08-01T04:51:39Z</time>
            </trkpt>
            <trkpt lon="101.418867" lat="13.043764">
                <ele>61.662000</ele>
                <time>2010-08-01T04:52:06Z</time>
            </trkpt>
            <trkpt lon="101.423800" lat="13.045012">
                <ele>60.220000</ele>
                <time>2010-08-01T04:53:35Z</time>
            </trkpt>
            <trkpt lon="101.425865" lat="13.044860">
                <ele>63.104000</ele>
                <time>2010-08-01T04:54:20Z</time>
            </trkpt>
            <trkpt lon="101.426296" lat="13.043998">
                <ele>61.181000</ele>
                <time>2010-08-01T04:54:43Z</time>
            </trkpt>
            <trkpt lon="101.426078" lat="13.041512">
                <ele>54.452000</ele>
                <time>2010-08-01T04:55:20Z</time>
            </trkpt>
            <trkpt lon="101.425661" lat="13.039735">
                <ele>59.258000</ele>
                <time>2010-08-01T04:55:54Z</time>
            </trkpt>
            <trkpt lon="101.425462" lat="13.038235">
                <ele>58.778000</ele>
                <time>2010-08-01T04:56:18Z</time>
            </trkpt>
            <trkpt lon="101.425336" lat="13.035951">
                <ele>64.546000</ele>
                <time>2010-08-01T04:56:53Z</time>
            </trkpt>
            <trkpt lon="101.425530" lat="13.034699">
                <ele>66.949000</ele>
                <time>2010-08-01T04:57:15Z</time>
            </trkpt>
            <trkpt lon="101.425606" lat="13.034063">
                <ele>64.065000</ele>
                <time>2010-08-01T04:57:27Z</time>
            </trkpt>
            <trkpt lon="101.426736" lat="13.030818">
                <ele>74.640000</ele>
                <time>2010-08-01T04:58:42Z</time>
            </trkpt>
            <trkpt lon="101.426833" lat="13.030697">
                <ele>78.004000</ele>
                <time>2010-08-01T04:58:44Z</time>
            </trkpt>
            <trkpt lon="101.427132" lat="13.030252">
                <ele>80.407000</ele>
                <time>2010-08-01T04:58:52Z</time>
            </trkpt>
            <trkpt lon="101.427488" lat="13.029706">
                <ele>80.888000</ele>
                <time>2010-08-01T04:59:00Z</time>
            </trkpt>
            <trkpt lon="101.428377" lat="13.028430">
                <ele>74.640000</ele>
                <time>2010-08-01T04:59:16Z</time>
            </trkpt>
            <trkpt lon="101.429454" lat="13.026240">
                <ele>65.988000</ele>
                <time>2010-08-01T04:59:45Z</time>
            </trkpt>
            <trkpt lon="101.429381" lat="13.026009">
                <ele>65.988000</ele>
                <time>2010-08-01T04:59:49Z</time>
            </trkpt>
            <trkpt lon="101.427976" lat="13.026358">
                <ele>67.430000</ele>
                <time>2010-08-01T05:00:10Z</time>
            </trkpt>
            <trkpt lon="101.426610" lat="13.026510">
                <ele>69.833000</ele>
                <time>2010-08-01T05:00:34Z</time>
            </trkpt>
            <trkpt lon="101.424882" lat="13.026061">
                <ele>81.369000</ele>
                <time>2010-08-01T05:01:09Z</time>
            </trkpt>
            <trkpt lon="101.424545" lat="13.025629">
                <ele>83.772000</ele>
                <time>2010-08-01T05:01:23Z</time>
            </trkpt>
            <trkpt lon="101.424413" lat="13.025557">
                <ele>84.253000</ele>
                <time>2010-08-01T05:01:27Z</time>
            </trkpt>
            <trkpt lon="101.423985" lat="13.026249">
                <ele>85.695000</ele>
                <time>2010-08-01T05:01:58Z</time>
            </trkpt>
        </trkseg>
    </trk>
</gpx>